Time;durP1;ratioP1;P1;durP2;ratioP2;P2;SDS_P1;SDS_P2;PMS_P1;PMS_P2;Temp;Humidity;BMP_temperature;BMP_pressure;BME280_temperature;BME280_humidity;BME280_pressure;Samples;Min_cycle;Max_cycle;Signal;HPM_P1;HPM_P2
2021/07/19 00:00:41;;;;;;;5.63;4.55;;;26.60;85.70;;;;;;5046269;28;20045;-75
2021/07/19 00:03:07;;;;;;;7.22;4.60;;;26.70;85.20;;;;;;5047463;28;20490;-76
2021/07/19 00:05:33;;;;;;;6.32;4.80;;;26.60;85.00;;;;;;5044060;28;20398;-76
2021/07/19 00:07:58;;;;;;;7.13;5.10;;;26.50;85.30;;;;;;5035534;28;20053;-75
2021/07/19 00:10:24;;;;;;;6.95;5.10;;;26.50;85.90;;;;;;5040359;28;20030;-75
2021/07/19 00:12:51;;;;;;;6.15;5.40;;;26.50;86.10;;;;;;5058832;28;20047;-75
2021/07/19 00:15:25;;;;;;;5.18;4.68;;;26.50;86.30;;;;;;5057026;28;20029;-75
2021/07/19 00:18:16;;;;;;;5.32;4.82;;;26.40;87.00;;;;;;5042088;28;20053;-77
2021/07/19 00:20:42;;;;;;;4.85;4.45;;;26.60;87.20;;;;;;5031797;28;20053;-76
2021/07/19 00:23:07;;;;;;;6.32;5.15;;;26.60;86.30;;;;;;5022493;28;20061;-76
2021/07/19 00:25:33;;;;;;;6.00;4.63;;;26.50;85.80;;;;;;5027467;28;20137;-76
2021/07/19 00:28:00;;;;;;;6.85;4.43;;;26.50;85.80;;;;;;5050660;28;20034;-75
2021/07/19 00:30:26;;;;;;;5.50;4.50;;;26.60;85.80;;;;;;5039620;28;20501;-76
2021/07/19 00:32:52;;;;;;;5.72;4.70;;;26.50;85.90;;;;;;5037287;28;20052;-76
2021/07/19 00:35:18;;;;;;;4.60;4.15;;;26.50;86.10;;;;;;5025317;28;20445;-76
2021/07/19 00:37:44;;;;;;;4.90;4.50;;;26.50;85.70;;;;;;5030396;28;20132;-76
2021/07/19 00:40:13;;;;;;;8.70;4.35;;;26.60;85.80;;;;;;5035915;28;20052;-76
2021/07/19 00:42:40;;;;;;;6.65;4.68;;;26.60;85.80;;;;;;5040108;28;20149;-76
2021/07/19 00:45:32;;;;;;;6.38;4.53;;;26.50;85.20;;;;;;5033997;28;20062;-77
2021/07/19 00:48:01;;;;;;;5.65;4.72;;;26.40;85.70;;;;;;5006714;28;20487;-76
2021/07/19 00:50:29;;;;;;;5.15;4.38;;;26.40;85.80;;;;;;5034648;28;20071;-76
2021/07/19 00:52:57;;;;;;;7.25;4.40;;;26.50;85.80;;;;;;5032896;28;20037;-75
2021/07/19 00:55:31;;;;;;;6.13;4.57;;;26.50;85.90;;;;;;5049939;28;20376;-77
2021/07/19 00:57:58;;;;;;;5.25;4.75;;;26.50;85.80;;;;;;5041886;28;20071;-76
2021/07/19 01:00:25;;;;;;;4.80;3.88;;;26.50;85.30;;;;;;5030279;28;20053;-75
2021/07/19 01:02:53;;;;;;;6.20;4.68;;;26.50;85.50;;;;;;5031345;28;20095;-76
2021/07/19 01:05:18;;;;;;;5.05;3.92;;;26.40;85.40;;;;;;5042703;28;20055;-77
2021/07/19 01:07:46;;;;;;;7.45;4.35;;;26.40;85.50;;;;;;5034758;28;20048;-76
2021/07/19 01:10:16;;;;;;;5.20;4.70;;;26.30;86.10;;;;;;5037172;28;20051;-74
2021/07/19 01:12:43;;;;;;;4.70;4.15;;;26.30;86.40;;;;;;5047190;28;20090;-76
2021/07/19 01:15:30;;;;;;;5.85;4.88;;;26.30;86.10;;;;;;5054189;28;20056;-76
2021/07/19 01:17:55;;;;;;;4.60;4.20;;;26.40;87.40;;;;;;5024316;28;20041;-76
2021/07/19 01:21:01;;;;;;;5.18;4.50;;;26.40;85.90;;;;;;5042902;28;20039;-76
2021/07/19 01:23:38;;;;;;;6.18;4.35;;;26.40;86.70;;;;;;5003786;28;20061;-77
2021/07/19 01:26:29;;;;;;;5.53;4.45;;;26.30;86.90;;;;;;5033644;28;20029;-77
2021/07/19 01:28:57;;;;;;;5.03;4.20;;;26.30;86.40;;;;;;5022846;28;20605;-76
2021/07/19 01:31:31;;;;;;;6.68;4.38;;;26.30;86.60;;;;;;5036826;28;20033;-76
2021/07/19 01:33:58;;;;;;;;;;;26.40;86.50;;;;;;5043009;28;20036;-76
2021/07/19 01:36:29;;;;;;;6.85;4.43;;;26.30;87.00;;;;;;5041868;28;19913;-77
2021/07/19 01:38:55;;;;;;;5.00;4.50;;;26.30;86.50;;;;;;5033095;28;20034;-76
2021/07/19 01:41:23;;;;;;;5.88;4.50;;;26.40;86.20;;;;;;5026723;28;20033;-77
2021/07/19 01:43:49;;;;;;;5.30;4.80;;;26.30;86.20;;;;;;5046748;28;20044;-78
2021/07/19 01:46:20;;;;;;;5.68;4.03;;;26.30;86.20;;;;;;5046270;28;20037;-77
2021/07/19 01:48:47;;;;;;;4.32;3.92;;;26.30;86.30;;;;;;5042028;28;20026;-76
2021/07/19 01:51:13;;;;;;;4.78;4.38;;;26.20;86.20;;;;;;5038185;28;20048;-76
2021/07/19 01:53:41;;;;;;;5.75;4.55;;;26.20;86.30;;;;;;5049765;28;20143;-76
2021/07/19 01:56:07;;;;;;;6.20;4.20;;;26.30;86.00;;;;;;5045704;28;20445;-77
2021/07/19 01:58:34;;;;;;;4.57;4.00;;;26.30;86.00;;;;;;5045698;28;20501;-76
2021/07/19 02:01:00;;;;;;;4.90;4.13;;;26.20;86.20;;;;;;5046115;28;20029;-76
2021/07/19 02:03:26;;;;;;;4.93;4.32;;;26.30;86.10;;;;;;5048908;28;20049;-77
2021/07/19 02:05:56;;;;;;;5.05;4.03;;;26.30;86.30;;;;;;5063670;28;20048;-76
2021/07/19 02:08:22;;;;;;;4.60;4.20;;;26.40;86.00;;;;;;5049736;28;20037;-75
2021/07/19 02:10:51;;;;;;;5.82;4.82;;;26.40;86.00;;;;;;5047464;28;20418;-77
2021/07/19 02:13:18;;;;;;;5.57;4.97;;;26.40;86.10;;;;;;5050626;28;20032;-77
2021/07/19 02:15:45;;;;;;;8.63;4.13;;;26.30;86.00;;;;;;5045358;28;20037;-77
2021/07/19 02:18:12;;;;;;;5.22;4.25;;;26.30;86.00;;;;;;5038516;28;20049;-62
2021/07/19 02:20:39;;;;;;;4.88;4.15;;;26.40;86.00;;;;;;5051277;28;20040;-77
2021/07/19 02:23:06;;;;;;;4.68;4.28;;;26.40;86.30;;;;;;5037903;28;20076;-77
2021/07/19 02:25:34;;;;;;;4.72;3.95;;;26.30;85.90;;;;;;5050146;28;20040;-78
2021/07/19 02:28:01;;;;;;;5.45;4.43;;;26.30;86.10;;;;;;5059310;28;20091;-77
2021/07/19 02:30:27;;;;;;;4.50;4.10;;;26.30;85.50;;;;;;5043539;28;20091;-78
2021/07/19 02:32:57;;;;;;;4.18;3.67;;;26.30;85.60;;;;;;5025921;28;20072;-78
2021/07/19 02:35:25;;;;;;;5.07;4.45;;;26.30;86.00;;;;;;5047512;28;20021;-77
2021/07/19 02:37:53;;;;;;;5.50;4.00;;;26.30;86.00;;;;;;5036384;28;20478;-77
2021/07/19 02:40:22;;;;;;;4.60;4.20;;;26.30;85.60;;;;;;5043068;28;20554;-77
2021/07/19 02:42:56;;;;;;;4.90;4.00;;;26.30;85.80;;;;;;5036226;28;20045;-77
2021/07/19 02:45:22;;;;;;;4.70;4.30;;;26.30;86.00;;;;;;5056323;28;20082;-77
2021/07/19 02:47:50;;;;;;;4.25;3.70;;;26.30;85.80;;;;;;5049404;28;20045;-78
2021/07/19 02:50:27;;;;;;;5.53;4.70;;;26.30;85.50;;;;;;5037392;28;20037;-75
2021/07/19 02:52:58;;;;;;;5.43;4.60;;;26.30;86.10;;;;;;5037037;28;20056;-78
2021/07/19 02:55:24;;;;;;;5.78;3.72;;;26.20;85.60;;;;;;5031340;28;20033;-78
2021/07/19 02:57:50;;;;;;;4.43;3.85;;;26.20;85.70;;;;;;5024790;28;20038;-77
2021/07/19 03:00:17;;;;;;;6.38;4.22;;;26.30;85.70;;;;;;5029696;28;20410;-77
2021/07/19 03:02:50;;;;;;;6.32;4.53;;;26.30;85.70;;;;;;5051407;28;20399;-77
2021/07/19 03:05:19;;;;;;;4.50;3.90;;;26.30;86.10;;;;;;5033371;28;20049;-78
2021/07/19 03:07:49;;;;;;;4.45;3.70;;;26.20;86.30;;;;;;5033409;28;20030;-77
2021/07/19 03:10:17;;;;;;;4.50;3.95;;;26.20;86.20;;;;;;5035357;28;20097;-77
2021/07/19 03:12:44;;;;;;;4.47;4.07;;;26.20;86.10;;;;;;5055936;28;20087;-77
2021/07/19 03:15:10;;;;;;;7.18;4.32;;;26.20;86.20;;;;;;5043730;28;20048;-78
2021/07/19 03:17:38;;;;;;;5.57;4.63;;;26.20;86.00;;;;;;5048477;28;20044;-77
2021/07/19 03:20:06;;;;;;;9.82;4.38;;;26.20;86.10;;;;;;5027450;28;20076;-78
2021/07/19 03:22:36;;;;;;;5.97;4.93;;;26.20;86.20;;;;;;5047672;28;20053;-78
2021/07/19 03:25:03;;;;;;;10.95;4.53;;;26.20;86.10;;;;;;5044104;28;20103;-78
2021/07/19 03:27:30;;;;;;;5.35;4.22;;;26.20;86.30;;;;;;5048771;28;20131;-77
2021/07/19 03:29:57;;;;;;;5.07;4.22;;;26.20;86.20;;;;;;5042117;28;20506;-77
2021/07/19 03:32:24;;;;;;;6.65;4.40;;;26.10;86.70;;;;;;5046512;28;20037;-77
2021/07/19 03:34:51;;;;;;;6.15;4.75;;;26.10;86.50;;;;;;5024463;28;20040;-78
2021/07/19 03:37:17;;;;;;;4.40;4.00;;;26.10;86.60;;;;;;5023797;28;20037;-77
2021/07/19 03:39:46;;;;;;;4.57;4.18;;;26.10;86.70;;;;;;5027880;28;20088;-77
2021/07/19 03:42:13;;;;;;;4.88;4.30;;;26.10;86.90;;;;;;5047361;28;20049;-76
2021/07/19 03:44:40;;;;;;;4.72;4.18;;;26.10;87.50;;;;;;5045113;28;20069;-77
2021/07/19 03:47:09;;;;;;;4.10;3.70;;;26.10;87.60;;;;;;5049589;28;20517;-77
2021/07/19 03:49:36;;;;;;;6.47;4.43;;;26.10;87.30;;;;;;5058621;28;20438;-77
2021/07/19 03:52:02;;;;;;;5.28;3.92;;;26.00;87.60;;;;;;5046707;28;20075;-78
2021/07/19 03:54:28;;;;;;;5.32;4.82;;;26.00;87.60;;;;;;5052379;28;20106;-78
2021/07/19 03:56:55;;;;;;;4.47;4.07;;;26.00;87.80;;;;;;5040608;28;20135;-78
2021/07/19 03:59:23;;;;;;;6.35;4.68;;;25.90;87.80;;;;;;5040683;28;20112;-78
2021/07/19 04:01:50;;;;;;;8.77;4.78;;;25.90;87.80;;;;;;5035062;28;20037;-78
2021/07/19 04:04:19;;;;;;;7.20;5.03;;;25.90;88.30;;;;;;5032678;28;20034;-78
2021/07/19 04:06:46;;;;;;;5.35;4.85;;;25.90;88.60;;;;;;5042397;28;20033;-77
2021/07/19 04:09:12;;;;;;;5.80;4.72;;;25.90;88.40;;;;;;5038069;28;20045;-75
2021/07/19 04:11:40;;;;;;;4.65;4.20;;;25.90;88.60;;;;;;5032787;28;20398;-79
2021/07/19 04:14:10;;;;;;;6.90;4.50;;;25.80;89.00;;;;;;5034247;28;20398;-79
2021/07/19 04:16:37;;;;;;;6.35;4.10;;;25.90;88.90;;;;;;5030454;28;20040;-78
2021/07/19 04:19:03;;;;;;;5.97;4.20;;;25.80;89.00;;;;;;5044238;28;20095;-77
2021/07/19 04:21:32;;;;;;;4.40;4.00;;;25.90;89.20;;;;;;5025556;28;20037;-78
2021/07/19 04:23:58;;;;;;;6.75;4.30;;;25.90;89.60;;;;;;5061519;28;20037;-78
2021/07/19 04:26:23;;;;;;;4.63;4.10;;;25.90;89.10;;;;;;5043290;28;20490;-77
2021/07/19 04:28:49;;;;;;;5.90;4.38;;;25.90;89.60;;;;;;5046291;28;20037;-77
2021/07/19 04:31:16;;;;;;;5.13;4.40;;;26.00;89.40;;;;;;5055228;28;20129;-76
2021/07/19 04:33:46;;;;;;;5.25;4.75;;;26.00;89.50;;;;;;5039062;28;20486;-75
2021/07/19 04:36:12;;;;;;;10.18;4.50;;;26.00;89.10;;;;;;5029894;28;20064;-74
2021/07/19 04:38:38;;;;;;;5.05;4.45;;;26.00;89.00;;;;;;5030930;28;20040;-76
2021/07/19 04:41:04;;;;;;;5.28;4.00;;;26.10;88.50;;;;;;5058276;28;20055;-76
2021/07/19 04:43:30;;;;;;;4.47;4.10;;;26.10;88.50;;;;;;5043457;28;20044;-75
2021/07/19 04:45:56;;;;;;;7.70;4.38;;;26.10;88.90;;;;;;5033415;28;20738;-76
2021/07/19 04:48:22;;;;;;;5.13;4.10;;;26.20;89.00;;;;;;5022885;28;20041;-77
2021/07/19 04:50:48;;;;;;;4.13;3.72;;;26.10;88.70;;;;;;5031002;28;20100;-76
2021/07/19 04:53:15;;;;;;;4.93;4.40;;;26.10;88.80;;;;;;5030973;28;20037;-76
2021/07/19 04:55:53;;;;;;;4.68;3.97;;;26.30;88.70;;;;;;5034186;28;20535;-70
2021/07/19 04:58:22;;;;;;;4.22;3.88;;;26.30;88.40;;;;;;5041072;28;20052;-76
2021/07/19 05:00:52;;;;;;;5.22;4.20;;;26.30;87.90;;;;;;5044878;28;20033;-76
2021/07/19 05:03:19;;;;;;;4.65;4.22;;;26.40;87.30;;;;;;5044248;28;20092;-77
2021/07/19 05:05:46;;;;;;;5.68;4.50;;;26.40;87.40;;;;;;5037962;28;20140;-76
2021/07/19 05:08:17;;;;;;;5.03;3.95;;;26.50;87.00;;;;;;5043887;28;20124;-75
2021/07/19 05:10:43;;;;;;;8.73;4.75;;;26.60;86.40;;;;;;5034747;28;20116;-76
2021/07/19 05:13:11;;;;;;;5.15;4.32;;;26.70;86.70;;;;;;5018177;28;20041;-76
2021/07/19 05:15:39;;;;;;;6.30;4.03;;;26.70;86.50;;;;;;5047442;28;20081;-77
2021/07/19 05:18:06;;;;;;;8.43;4.50;;;26.80;87.00;;;;;;5031197;28;20080;-76
2021/07/19 05:20:34;;;;;;;5.13;4.20;;;26.80;86.30;;;;;;5029284;28;20186;-77
2021/07/19 05:23:00;;;;;;;6.00;4.32;;;26.80;86.20;;;;;;5046919;28;20052;-77
2021/07/19 05:25:30;;;;;;;4.80;3.97;;;26.80;86.50;;;;;;5042738;28;20048;-76
2021/07/19 05:28:05;;;;;;;5.07;4.25;;;26.80;86.10;;;;;;5047452;28;20550;-77
2021/07/19 05:30:31;;;;;;;4.63;3.83;;;26.80;85.50;;;;;;5040593;28;20037;-77
2021/07/19 05:32:57;;;;;;;4.85;4.20;;;26.90;85.50;;;;;;5040240;28;20068;-76
2021/07/19 05:35:23;;;;;;;9.40;4.28;;;26.90;84.50;;;;;;5042583;28;20072;-76
2021/07/19 05:37:49;;;;;;;6.78;4.47;;;27.00;84.50;;;;;;5037367;28;20041;-76
2021/07/19 05:40:16;;;;;;;5.45;4.93;;;27.10;84.00;;;;;;5021746;28;20491;-76
2021/07/19 05:42:42;;;;;;;5.40;4.13;;;27.10;83.20;;;;;;5031548;28;20065;-76
2021/07/19 05:45:09;;;;;;;4.75;3.75;;;27.10;82.70;;;;;;5031799;28;20033;-77
2021/07/19 05:47:35;;;;;;;4.47;4.07;;;27.20;81.90;;;;;;5035522;28;20041;-77
2021/07/19 05:50:02;;;;;;;5.38;4.20;;;27.10;81.10;;;;;;5028367;28;25170;-77
2021/07/19 05:52:49;;;;;;;4.35;3.95;;;27.20;80.80;;;;;;5046920;28;20043;-76
2021/07/19 05:55:15;;;;;;;4.47;3.70;;;27.20;77.90;;;;;;5018723;28;20140;-77
2021/07/19 05:57:41;;;;;;;4.43;3.67;;;27.20;80.10;;;;;;5027208;28;20395;-76
2021/07/19 06:00:11;;;;;;;5.28;3.45;;;27.30;79.50;;;;;;5041541;28;20041;-76
2021/07/19 06:02:37;;;;;;;4.82;4.10;;;27.40;78.90;;;;;;5030252;28;20572;-75
2021/07/19 06:05:04;;;;;;;5.20;4.35;;;27.50;79.20;;;;;;5028063;28;20033;-75
2021/07/19 06:07:29;;;;;;;5.35;4.38;;;27.70;79.30;;;;;;5029355;28;20030;-77
2021/07/19 06:09:55;;;;;;;6.25;4.10;;;27.70;78.70;;;;;;5031399;28;20041;-76
2021/07/19 06:12:21;;;;;;;7.00;3.95;;;27.80;78.30;;;;;;5019364;28;20026;-76
2021/07/19 06:14:46;;;;;;;3.78;3.40;;;27.90;75.60;;;;;;5035287;28;20033;-74
2021/07/19 06:17:15;;;;;;;4.32;3.60;;;28.00;75.30;;;;;;5025772;28;20119;-75
2021/07/19 06:19:44;;;;;;;3.97;3.53;;;28.00;73.90;;;;;;5029037;28;20049;-76
2021/07/19 06:22:11;;;;;;;4.78;3.75;;;28.10;73.20;;;;;;5037406;28;20091;-75
2021/07/19 06:24:38;;;;;;;5.57;4.18;;;28.20;73.30;;;;;;5026053;28;20068;-76
2021/07/19 06:27:04;;;;;;;7.53;3.72;;;28.20;72.80;;;;;;5027819;28;20040;-77
2021/07/19 06:29:30;;;;;;;4.10;3.63;;;28.30;73.00;;;;;;5051098;28;20044;-75
2021/07/19 06:31:56;;;;;;;17.10;4.93;;;28.30;71.90;;;;;;5029005;28;20037;-75
2021/07/19 06:34:21;;;;;;;11.23;4.60;;;28.40;71.10;;;;;;5031992;28;20088;-75
2021/07/19 06:36:47;;;;;;;5.82;3.75;;;28.40;70.80;;;;;;5026520;28;20045;-75
2021/07/19 06:39:12;;;;;;;4.88;3.75;;;28.40;70.00;;;;;;5028437;28;20682;-75
2021/07/19 06:41:38;;;;;;;5.45;3.60;;;28.40;69.90;;;;;;5029718;28;20042;-75
2021/07/19 06:44:04;;;;;;;6.95;4.10;;;28.40;70.30;;;;;;5046487;28;20064;-75
2021/07/19 06:46:30;;;;;;;7.68;4.05;;;28.40;70.80;;;;;;5043059;28;20044;-75
2021/07/19 06:48:55;;;;;;;6.75;4.00;;;28.50;70.60;;;;;;5040444;28;20064;-76
2021/07/19 06:51:21;;;;;;;4.65;3.67;;;28.50;69.40;;;;;;5026992;28;20048;-75
2021/07/19 06:53:46;;;;;;;3.95;3.60;;;28.60;69.50;;;;;;5028504;28;20039;-75
2021/07/19 06:56:12;;;;;;;6.75;3.95;;;28.60;69.00;;;;;;5028388;28;20187;-74
2021/07/19 06:58:38;;;;;;;4.85;3.63;;;28.60;68.50;;;;;;5028526;28;20037;-76
2021/07/19 07:01:03;;;;;;;4.65;4.13;;;28.50;69.40;;;;;;5044238;28;20036;-76
2021/07/19 07:03:29;;;;;;;6.00;3.70;;;28.50;69.40;;;;;;5036128;28;20048;-76
2021/07/19 07:05:55;;;;;;;7.00;3.50;;;28.60;69.10;;;;;;5033369;28;20041;-75
2021/07/19 07:08:22;;;;;;;5.88;3.92;;;28.60;69.00;;;;;;5037093;28;20041;-76
2021/07/19 07:10:49;;;;;;;3.70;3.40;;;28.60;68.60;;;;;;5057585;28;20068;-77
2021/07/19 07:13:15;;;;;;;5.10;4.38;;;28.50;68.90;;;;;;5012542;28;20595;-77
2021/07/19 07:15:41;;;;;;;4.78;3.88;;;28.50;68.80;;;;;;5036467;28;20120;-77
2021/07/19 07:18:10;;;;;;;5.75;4.15;;;28.50;69.60;;;;;;5042308;28;20129;-76
2021/07/19 07:20:37;;;;;;;7.38;4.80;;;28.40;70.80;;;;;;5025205;28;20446;-77
2021/07/19 07:23:04;;;;;;;5.03;3.85;;;28.20;71.70;;;;;;5032634;28;20048;-77
2021/07/19 07:25:29;;;;;;;5.63;4.45;;;28.30;72.20;;;;;;5043194;28;20390;-76
2021/07/19 07:27:55;;;;;;;6.53;4.25;;;28.20;72.70;;;;;;5033298;28;20040;-76
2021/07/19 07:30:21;;;;;;;7.03;4.13;;;28.20;73.30;;;;;;5044369;28;20037;-73
2021/07/19 07:32:50;;;;;;;6.22;4.75;;;28.20;72.90;;;;;;5031364;28;20041;-74
2021/07/19 07:35:15;;;;;;;5.53;4.28;;;28.30;72.50;;;;;;5040710;28;20052;-73
2021/07/19 07:37:41;;;;;;;6.20;4.00;;;28.40;71.80;;;;;;5048086;28;20566;-58
2021/07/19 07:40:13;;;;;;;7.18;4.38;;;28.50;72.20;;;;;;5046869;28;20097;-77
2021/07/19 07:42:39;;;;;;;6.80;4.40;;;28.60;71.20;;;;;;5059370;28;20045;-76
2021/07/19 07:45:08;;;;;;;6.13;4.30;;;28.60;71.20;;;;;;5033881;28;20036;-75
2021/07/19 07:47:34;;;;;;;5.88;3.90;;;28.60;70.30;;;;;;5036153;28;20094;-76
2021/07/19 07:50:00;;;;;;;8.30;4.40;;;28.50;70.60;;;;;;5025772;28;20037;-76
2021/07/19 07:52:25;;;;;;;8.60;4.43;;;28.60;70.90;;;;;;5041445;28;20043;-76
2021/07/19 07:54:51;;;;;;;7.78;4.25;;;28.50;72.10;;;;;;5028955;28;20491;-76
2021/07/19 07:57:17;;;;;;;9.07;4.03;;;28.60;72.70;;;;;;5042500;28;20052;-74
2021/07/19 07:59:43;;;;;;;5.65;4.18;;;28.70;72.40;;;;;;5042704;28;20040;-76
2021/07/19 08:02:09;;;;;;;6.75;5.10;;;28.70;71.80;;;;;;5050948;28;20514;-73
2021/07/19 08:04:36;;;;;;;4.55;4.13;;;28.80;71.40;;;;;;5045068;28;20041;-73
2021/07/19 08:07:03;;;;;;;5.38;4.25;;;28.80;71.30;;;;;;5046575;28;20501;-74
2021/07/19 08:09:29;;;;;;;8.75;4.50;;;28.90;71.10;;;;;;5044113;28;20491;-75
2021/07/19 08:11:56;;;;;;;7.20;4.47;;;29.00;70.40;;;;;;5042717;28;20107;-74
2021/07/19 08:14:22;;;;;;;6.25;3.85;;;29.20;70.20;;;;;;5046824;28;20072;-75
2021/07/19 08:16:48;;;;;;;7.15;4.90;;;29.20;69.80;;;;;;5044245;28;20033;-74
2021/07/19 08:19:14;;;;;;;7.97;4.47;;;29.40;68.70;;;;;;5024199;28;20044;-76
2021/07/19 08:21:41;;;;;;;7.90;4.22;;;29.50;68.20;;;;;;5036075;28;20139;-75
2021/07/19 08:24:07;;;;;;;8.70;4.47;;;29.50;67.70;;;;;;5051206;28;20080;-75
2021/07/19 08:26:34;;;;;;;8.25;4.72;;;29.50;67.70;;;;;;5024577;28;20119;-75
2021/07/19 08:29:00;;;;;;;7.40;4.47;;;29.40;67.80;;;;;;5040577;28;20044;-75
2021/07/19 08:31:27;;;;;;;6.38;4.43;;;29.40;67.90;;;;;;5012279;28;20029;-74
2021/07/19 08:33:54;;;;;;;5.75;4.25;;;29.40;67.80;;;;;;5029822;28;20111;-75
2021/07/19 08:36:20;;;;;;;6.85;4.38;;;29.40;67.50;;;;;;5044323;28;20399;-75
2021/07/19 08:38:47;;;;;;;7.38;4.35;;;29.50;67.20;;;;;;5047823;28;20087;-74
2021/07/19 08:41:14;;;;;;;5.70;4.35;;;29.60;66.40;;;;;;5042771;28;20094;-74
2021/07/19 08:43:41;;;;;;;8.30;4.70;;;29.60;66.10;;;;;;5041398;28;20060;-74
2021/07/19 08:46:09;;;;;;;6.78;4.63;;;29.60;66.20;;;;;;5027721;28;20041;-75
2021/07/19 08:48:36;;;;;;;5.97;5.03;;;29.60;64.90;;;;;;5027544;28;20033;-74
2021/07/19 08:51:03;;;;;;;7.28;4.40;;;29.50;66.00;;;;;;5039493;28;20052;-74
2021/07/19 08:53:32;;;;;;;6.95;4.55;;;29.60;66.00;;;;;;5025014;28;20045;-75
2021/07/19 08:55:58;;;;;;;8.52;5.05;;;29.70;65.90;;;;;;5026681;28;20108;-75
2021/07/19 08:58:25;;;;;;;12.40;4.82;;;29.60;66.20;;;;;;5023608;28;20140;-75
2021/07/19 09:00:52;;;;;;;5.05;4.40;;;29.70;65.40;;;;;;5026688;28;20041;-75
2021/07/19 09:03:18;;;;;;;7.50;4.60;;;29.70;65.30;;;;;;5027931;28;20407;-75
2021/07/19 09:05:47;;;;;;;6.15;4.70;;;29.80;64.80;;;;;;5024380;28;20034;-74
2021/07/19 09:08:13;;;;;;;6.45;4.63;;;29.70;64.40;;;;;;5043586;28;20057;-70
2021/07/19 09:10:38;;;;;;;6.38;4.45;;;29.80;64.50;;;;;;5047448;28;20166;-75
2021/07/19 09:13:07;;;;;;;8.75;5.18;;;29.80;65.30;;;;;;5042445;28;20569;-75
2021/07/19 09:15:35;;;;;;;5.35;4.85;;;30.00;64.60;;;;;;5048738;28;20040;-76
2021/07/19 09:18:02;;;;;;;6.88;4.20;;;30.00;62.90;;;;;;5028337;28;20199;-76
2021/07/19 09:20:36;;;;;;;9.77;4.85;;;29.90;62.70;;;;;;5026335;28;20046;-75
2021/07/19 09:23:03;;;;;;;7.68;4.80;;;30.00;63.60;;;;;;5030097;28;20225;-75
2021/07/19 09:25:29;;;;;;;5.80;4.43;;;30.10;62.60;;;;;;5033935;28;20045;-75
2021/07/19 09:28:24;;;;;;;4.68;4.28;;;30.10;61.60;;;;;;5029177;28;20033;-75
2021/07/19 09:30:53;;;;;;;5.43;4.82;;;30.20;61.30;;;;;;5005909;28;20042;-76
2021/07/19 09:33:19;;;;;;;4.97;4.47;;;30.30;61.80;;;;;;5013343;28;20052;-75
2021/07/19 09:35:49;;;;;;;4.90;4.40;;;30.30;61.00;;;;;;5046176;28;20033;-74
2021/07/19 09:38:17;;;;;;;5.25;4.32;;;30.40;60.70;;;;;;5023408;28;20033;-74
2021/07/19 09:40:52;;;;;;;6.57;4.47;;;30.60;59.90;;;;;;5024177;28;20041;-66
2021/07/19 09:43:22;;;;;;;8.77;5.00;;;30.40;59.20;;;;;;5032794;28;20048;-73
2021/07/19 09:46:06;;;;;;;7.40;4.57;;;30.50;59.50;;;;;;5039822;28;20037;-74
2021/07/19 09:48:32;;;;;;;6.95;4.90;;;30.60;58.30;;;;;;5027587;28;20036;-74
2021/07/19 09:50:59;;;;;;;6.68;5.38;;;30.70;58.90;;;;;;5040490;28;20445;-75
2021/07/19 09:53:39;;;;;;;7.35;5.35;;;30.80;59.10;;;;;;5031035;28;20060;-76
2021/07/19 09:56:15;;;;;;;8.13;5.15;;;30.70;59.20;;;;;;5033713;28;20037;-75
2021/07/19 09:58:47;;;;;;;7.53;5.03;;;30.90;59.00;;;;;;5035990;28;20108;-76
2021/07/19 10:01:27;;;;;;;9.52;5.32;;;30.90;59.10;;;;;;5038385;28;20136;-73
2021/07/19 10:04:05;;;;;;;6.97;5.20;;;31.10;58.70;;;;;;5047588;28;20049;-75
2021/07/19 10:06:31;;;;;;;8.85;5.03;;;31.00;58.90;;;;;;5025362;28;20440;-75
2021/07/19 10:08:58;;;;;;;10.60;5.05;;;31.10;59.60;;;;;;5031238;28;20041;-75
2021/07/19 10:11:30;;;;;;;8.30;5.55;;;31.20;59.90;;;;;;5029585;28;20029;-75
2021/07/19 10:13:56;;;;;;;7.85;5.30;;;31.20;60.10;;;;;;5037784;28;20048;-75
2021/07/19 10:16:23;;;;;;;8.73;5.63;;;31.10;60.10;;;;;;5036730;28;20038;-75
2021/07/19 10:18:52;;;;;;;8.32;5.07;;;31.10;60.60;;;;;;5049688;28;20045;-75
2021/07/19 10:21:18;;;;;;;8.20;5.10;;;31.20;60.00;;;;;;5044122;28;20094;-75
2021/07/19 10:23:45;;;;;;;7.45;4.53;;;31.40;59.50;;;;;;5047773;28;20091;-75
2021/07/19 10:26:11;;;;;;;8.23;4.75;;;31.40;59.20;;;;;;5028665;28;20038;-76
2021/07/19 10:28:38;;;;;;;8.30;5.28;;;31.50;59.20;;;;;;5039463;28;20031;-76
2021/07/19 10:31:04;;;;;;;5.80;4.75;;;31.60;57.80;;;;;;5030595;28;20040;-75
2021/07/19 10:33:31;;;;;;;5.78;4.57;;;31.60;56.80;;;;;;5054731;28;20049;-75
2021/07/19 10:35:59;;;;;;;6.45;4.75;;;31.50;56.60;;;;;;5045870;28;20083;-75
2021/07/19 10:38:29;;;;;;;7.43;4.80;;;31.30;56.70;;;;;;5048309;28;20044;-76
2021/07/19 10:40:57;;;;;;;6.20;4.78;;;31.70;56.80;;;;;;5035818;28;20053;-76
2021/07/19 10:43:24;;;;;;;5.70;5.05;;;31.80;55.40;;;;;;5039163;28;20491;-75
2021/07/19 10:45:58;;;;;;;5.82;4.78;;;31.90;55.70;;;;;;5045311;28;20503;-74
2021/07/19 10:48:29;;;;;;;6.07;4.70;;;32.00;54.50;;;;;;5050817;28;20174;-75
2021/07/19 10:50:57;;;;;;;5.05;4.22;;;32.20;53.60;;;;;;5047353;28;20060;-75
2021/07/19 10:53:27;;;;;;;5.30;4.85;;;32.40;52.60;;;;;;5039222;28;20056;-75
2021/07/19 10:56:07;;;;;;;9.57;5.40;;;32.30;53.10;;;;;;5065322;28;20445;-74
2021/07/19 10:58:44;;;;;;;4.55;4.10;;;32.50;51.80;;;;;;5045931;28;20041;-75
2021/07/19 11:01:24;;;;;;;4.70;4.30;;;32.60;51.30;;;;;;5020997;28;20128;-75
2021/07/19 11:03:51;;;;;;;5.32;4.60;;;32.60;50.80;;;;;;5010384;28;20652;-75
2021/07/19 11:06:37;;;;;;;4.68;4.28;;;32.70;50.40;;;;;;5051939;28;20454;-75
2021/07/19 11:09:12;;;;;;;5.35;4.93;;;33.80;47.90;;;;;;5040201;28;20494;-75
2021/07/19 11:11:40;;;;;;;4.85;4.38;;;35.90;46.00;;;;;;5038658;28;20060;-75
2021/07/19 11:14:11;;;;;;;5.43;4.93;;;37.80;42.50;;;;;;5031431;28;20480;-74
2021/07/19 11:16:42;;;;;;;5.80;4.88;;;39.30;39.90;;;;;;5028346;28;20038;-75
2021/07/19 11:19:09;;;;;;;6.57;4.60;;;39.80;36.20;;;;;;5028751;28;20041;-75
2021/07/19 11:21:35;;;;;;;7.75;4.90;;;40.10;35.30;;;;;;5041389;28;20067;-74
2021/07/19 11:24:19;;;;;;;5.25;4.75;;;40.00;39.90;;;;;;5034993;28;20513;-74
2021/07/19 11:26:56;;;;;;;8.40;5.38;;;39.70;38.90;;;;;;5020799;28;20096;-74
2021/07/19 11:29:41;;;;;;;6.97;5.32;;;38.80;38.40;;;;;;5040673;28;20036;-74
2021/07/19 11:32:07;;;;;;;6.60;4.70;;;38.30;38.40;;;;;;5042112;28;20048;-73
2021/07/19 11:34:34;;;;;;;5.60;5.18;;;36.90;45.10;;;;;;5042770;28;20045;-73
2021/07/19 11:37:01;;;;;;;5.65;5.10;;;36.80;56.10;;;;;;5041910;28;20046;-73
2021/07/19 11:39:27;;;;;;;5.50;5.00;;;36.40;50.60;;;;;;5037281;28;20037;-73
2021/07/19 11:42:03;;;;;;;7.53;5.20;;;36.10;51.70;;;;;;5045812;28;20548;-73
2021/07/19 11:44:32;;;;;;;6.22;4.80;;;36.00;50.20;;;;;;5036371;28;20130;-73
2021/07/19 11:46:58;;;;;;;5.63;5.00;;;36.40;47.40;;;;;;5044423;28;20033;-73
2021/07/19 11:49:25;;;;;;;5.50;5.00;;;36.30;46.60;;;;;;5032193;28;20120;-73
2021/07/19 11:51:53;;;;;;;5.43;4.93;;;36.10;46.00;;;;;;5036302;28;20032;-73
2021/07/19 11:54:18;;;;;;;6.47;5.75;;;36.80;46.50;;;;;;5036788;28;20041;-74
2021/07/19 11:56:52;;;;;;;6.25;5.65;;;37.00;46.00;;;;;;5042458;28;20491;-73
2021/07/19 11:59:22;;;;;;;6.07;5.47;;;37.20;44.30;;;;;;5024084;28;20052;-74
2021/07/19 12:01:56;;;;;;;6.10;5.60;;;37.80;44.40;;;;;;5035149;28;20033;-74
2021/07/19 12:04:22;;;;;;;5.78;5.38;;;38.90;33.00;;;;;;5023520;28;20033;-74
2021/07/19 12:06:52;;;;;;;5.72;5.30;;;40.50;32.80;;;;;;5046446;28;20083;-74
2021/07/19 12:09:19;;;;;;;5.03;4.63;;;41.30;29.30;;;;;;5031758;28;20503;-74
2021/07/19 12:11:52;;;;;;;6.20;5.03;;;42.10;28.70;;;;;;5039938;28;20044;-72
2021/07/19 12:14:18;;;;;;;5.70;5.05;;;43.70;27.90;;;;;;5039484;28;20028;-74
2021/07/19 12:16:45;;;;;;;5.43;4.88;;;43.70;27.30;;;;;;5045879;28;20116;-73
2021/07/19 12:19:16;;;;;;;5.65;5.15;;;43.80;26.50;;;;;;5051375;28;20090;-74
2021/07/19 12:21:43;;;;;;;5.95;5.00;;;44.50;25.70;;;;;;5036543;28;20029;-74
2021/07/19 12:24:10;;;;;;;5.38;4.88;;;43.70;26.00;;;;;;5036618;28;20132;-74
2021/07/19 12:26:49;;;;;;;5.93;5.45;;;42.90;27.10;;;;;;5029905;28;20095;-74
2021/07/19 12:29:17;;;;;;;6.57;5.75;;;41.80;27.40;;;;;;5038608;28;20491;-73
2021/07/19 12:31:48;;;;;;;6.00;5.40;;;41.00;28.20;;;;;;5050144;28;20091;-74
2021/07/19 12:34:17;;;;;;;7.28;5.60;;;40.60;27.40;;;;;;5039406;28;20033;-68
2021/07/19 12:36:54;;;;;;;6.13;5.53;;;40.30;28.90;;;;;;5044894;28;20040;-74
2021/07/19 12:39:26;;;;;;;5.53;5.03;;;40.60;28.40;;;;;;5010522;28;20029;-73
2021/07/19 12:41:53;;;;;;;5.90;5.28;;;40.40;28.60;;;;;;5029711;28;20025;-73
2021/07/19 12:44:23;;;;;;;6.00;5.30;;;41.20;28.40;;;;;;5025042;28;20045;-74
2021/07/19 12:46:51;;;;;;;6.10;5.60;;;41.30;27.60;;;;;;5034394;28;20041;-73
2021/07/19 12:49:31;;;;;;;5.40;5.00;;;42.00;26.80;;;;;;5048789;28;20029;-74
2021/07/19 12:52:10;;;;;;;6.95;5.32;;;44.70;25.40;;;;;;5041895;28;20102;-74
2021/07/19 12:54:36;;;;;;;6.28;5.65;;;45.90;24.70;;;;;;5046426;28;20033;-73